Time;durP1;ratioP1;P1;durP2;ratioP2;P2;SDS_P1;SDS_P2;PMS_P1;PMS_P2;Temp;Humidity;BMP_temperature;BMP_pressure;BME280_temperature;BME280_humidity;BME280_pressure;Samples;Min_cycle;Max_cycle;Signal;HPM_P1;HPM_P2
2023/06/19 00:06:43;;;;;;;1999.90;999.90;;;21.90;99.90;;;;;;6733504;88;20178;-80
2023/06/19 00:16:44;;;;;;;1999.90;999.90;;;21.90;99.90;;;;;;6720316;88;20295;-80
2023/06/19 00:26:44;;;;;;;1999.90;999.90;;;21.90;99.90;;;;;;6717223;88;20290;-80
2023/06/19 00:36:45;;;;;;;1999.90;999.90;;;21.90;99.90;;;;;;6720386;88;20346;-79
2023/06/19 00:46:46;;;;;;;1999.90;999.90;;;21.70;99.90;;;;;;6716577;88;20680;-79
2023/06/19 00:56:46;;;;;;;1999.90;999.90;;;21.80;99.90;;;;;;6719871;88;20187;-80
2023/06/19 01:06:57;;;;;;;1999.90;999.90;;;22.00;99.90;;;;;;6727148;88;20227;-80
2023/06/19 01:16:58;;;;;;;1999.90;999.90;;;22.00;99.90;;;;;;6721969;88;20274;-80
2023/06/19 01:26:59;;;;;;;1999.90;999.90;;;21.90;99.90;;;;;;6721447;88;20200;-80
2023/06/19 01:37:01;;;;;;;1999.90;999.90;;;22.00;99.90;;;;;;6720658;88;20718;-79
2023/06/19 01:47:09;;;;;;;1999.90;999.90;;;22.00;99.90;;;;;;6723628;88;20228;-79
2023/06/19 01:57:10;;;;;;;1999.90;999.90;;;22.40;99.90;;;;;;6737741;88;20217;-79
2023/06/19 02:07:11;;;;;;;1999.90;999.90;;;22.20;99.90;;;;;;6721648;88;20222;-80
2023/06/19 02:17:11;;;;;;;1999.90;999.90;;;22.00;99.90;;;;;;6717690;88;20239;-79
2023/06/19 02:27:12;;;;;;;1999.90;999.90;;;22.00;99.90;;;;;;6716732;88;20217;-81
2023/06/19 02:37:12;;;;;;;1999.90;999.90;;;22.00;99.90;;;;;;6722295;88;20218;-78
2023/06/19 02:47:13;;;;;;;1999.90;999.90;;;22.00;99.90;;;;;;6726508;88;20188;-78
2023/06/19 02:57:13;;;;;;;1999.90;999.90;;;21.90;99.90;;;;;;6719894;88;20590;-79
2023/06/19 03:07:14;;;;;;;1999.90;999.90;;;21.80;99.90;;;;;;6724051;88;20201;-79
2023/06/19 03:17:14;;;;;;;1999.90;999.90;;;21.50;99.90;;;;;;6717159;88;20257;-79
2023/06/19 03:27:15;;;;;;;1999.90;999.90;;;21.50;99.90;;;;;;6720761;88;20186;-79
2023/06/19 03:37:16;;;;;;;1999.90;999.90;;;21.60;99.90;;;;;;6730644;88;20201;-77
2023/06/19 03:47:16;;;;;;;1999.90;999.90;;;21.70;99.90;;;;;;6715085;88;20197;-79
2023/06/19 03:57:17;;;;;;;1999.90;999.90;;;21.80;99.90;;;;;;6720450;88;20210;-80
2023/06/19 04:07:17;;;;;;;1999.90;999.90;;;21.80;99.90;;;;;;6716432;88;20521;-79
2023/06/19 04:17:18;;;;;;;1999.90;999.90;;;21.70;99.90;;;;;;6731254;88;20197;-79
2023/06/19 04:27:18;;;;;;;1999.90;999.90;;;21.50;99.90;;;;;;6711517;88;20249;-79
2023/06/19 04:37:19;;;;;;;1999.90;999.90;;;21.40;99.90;;;;;;6722525;88;20228;-79
2023/06/19 04:47:22;;;;;;;1999.90;999.90;;;21.50;99.90;;;;;;6730103;88;20186;-79
2023/06/19 04:57:22;;;;;;;1999.90;999.90;;;21.60;99.90;;;;;;6729950;88;20230;-80
2023/06/19 05:07:23;;;;;;;1999.90;999.90;;;21.70;99.90;;;;;;6743386;88;20242;-80
2023/06/19 05:17:24;;;;;;;1999.90;999.90;;;21.90;99.90;;;;;;6741611;88;20637;-83
2023/06/19 05:27:24;;;;;;;1999.90;999.90;;;22.00;99.90;;;;;;6738184;88;20247;-81
2023/06/19 05:37:26;;;;;;;1999.90;999.90;;;22.10;99.90;;;;;;6742793;88;20207;-82
2023/06/19 05:47:26;;;;;;;1999.90;999.90;;;22.10;99.90;;;;;;6750304;88;20286;-83
2023/06/19 05:57:27;;;;;;;1999.90;999.90;;;22.00;99.90;;;;;;6736131;88;20254;-83
2023/06/19 06:07:28;;;;;;;1999.90;999.90;;;22.20;99.90;;;;;;6720248;88;20777;-79
2023/06/19 06:17:29;;;;;;;1999.90;999.90;;;22.50;99.90;;;;;;6719477;88;20190;-79
2023/06/19 06:27:30;;;;;;;1999.90;999.90;;;23.00;99.90;;;;;;6720643;88;20188;-78
2023/06/19 06:37:30;;;;;;;1999.90;999.90;;;23.80;99.90;;;;;;6722553;88;20197;-78
2023/06/19 06:47:31;;;;;;;1999.90;999.90;;;24.50;99.90;;;;;;6725145;88;20332;-78
2023/06/19 06:57:31;;;;;;;1999.90;999.90;;;23.90;99.90;;;;;;6720045;88;20200;-77
2023/06/19 07:07:32;;;;;;;1999.90;999.90;;;23.50;99.90;;;;;;6718871;88;20181;-78
2023/06/19 07:17:32;;;;;;;1999.90;999.90;;;24.00;99.90;;;;;;6719252;88;20218;-78
2023/06/19 07:27:33;;;;;;;1999.90;999.90;;;25.20;99.90;;;;;;6716817;88;20237;-78
2023/06/19 07:37:34;;;;;;;1999.90;999.90;;;26.70;99.90;;;;;;6725034;88;20298;-78
2023/06/19 07:47:34;;;;;;;1999.90;999.90;;;26.60;99.90;;;;;;6721505;88;20265;-77
2023/06/19 07:57:35;;;;;;;1999.90;999.90;;;25.90;99.90;;;;;;6714379;88;20199;-78
2023/06/19 08:07:36;;;;;;;1999.90;999.90;;;26.60;99.90;;;;;;6706579;88;20215;-79
2023/06/19 08:17:37;;;;;;;1999.90;999.90;;;25.50;99.90;;;;;;6718194;88;20608;-78
2023/06/19 08:27:37;;;;;;;1999.90;999.90;;;25.20;99.90;;;;;;6722617;88;20712;-79
2023/06/19 08:37:38;;;;;;;1999.90;999.90;;;25.80;99.10;;;;;;6718727;88;20225;-79
2023/06/19 08:47:39;;;;;;;1999.90;999.90;;;26.60;98.00;;;;;;6727146;88;20226;-79
2023/06/19 08:57:40;;;;;;;1999.90;999.90;;;27.40;96.40;;;;;;6729759;88;20265;-79
2023/06/19 09:07:44;;;;;;;1999.90;999.90;;;27.70;95.90;;;;;;6725927;88;20208;-79
2023/06/19 09:17:44;;;;;;;1999.90;999.90;;;29.00;93.70;;;;;;6720412;88;20658;-78
2023/06/19 09:37:51;;;;;;;1999.90;999.90;;;27.40;94.50;;;;;;6689799;88;20345;-79
2023/06/19 09:47:55;;;;;;;1999.90;999.90;;;28.80;93.60;;;;;;6761125;88;20188;-79
2023/06/19 09:57:56;;;;;;;1999.90;999.90;;;30.20;91.40;;;;;;6760894;88;20247;-80
2023/06/19 10:07:59;;;;;;;1999.90;999.90;;;30.10;91.00;;;;;;6760349;88;20239;-79
2023/06/19 10:18:05;;;;;;;1999.90;999.90;;;30.40;90.30;;;;;;6719482;88;20199;-79
2023/06/19 10:28:30;;;;;;;1999.90;999.90;;;31.20;89.00;;;;;;6671167;89;20207;-80
2023/06/19 10:38:30;;;;;;;1999.90;999.90;;;31.80;86.60;;;;;;6671844;89;22773;-81
2023/06/19 10:48:31;;;;;;;1999.90;999.90;;;32.70;82.30;;;;;;6688694;87;20215;-80
2023/06/19 10:58:31;;;;;;;1999.90;999.90;;;33.10;80.20;;;;;;6689541;87;20179;-79
2023/06/19 11:08:32;;;;;;;1999.90;999.90;;;32.10;80.30;;;;;;6675526;89;20196;-79
2023/06/19 11:18:32;;;;;;;1999.90;999.90;;;33.20;77.40;;;;;;6674826;89;20557;-80
2023/06/19 11:28:33;;;;;;;;;;;34.70;74.60;;;;;;6669323;88;20209;-77
2023/06/19 11:38:38;;;;;;;1999.90;999.90;;;33.80;75.30;;;;;;6666931;89;20066;-78
2023/06/19 11:48:38;;;;;;;1999.90;999.90;;;34.50;72.10;;;;;;6667354;89;20743;-78
2023/06/19 11:58:39;;;;;;;1999.90;999.90;;;34.70;72.30;;;;;;6672751;89;20191;-80
2023/06/19 12:08:40;;;;;;;1999.90;999.90;;;35.30;70.00;;;;;;6669237;89;20225;-77
2023/06/19 12:18:40;;;;;;;1999.90;999.90;;;33.80;70.00;;;;;;6668827;89;20660;-78
2023/06/19 12:28:41;;;;;;;1999.90;999.90;;;36.60;69.30;;;;;;6668250;89;20323;-80
2023/06/19 12:38:42;;;;;;;1999.90;999.90;;;35.10;69.00;;;;;;6672147;89;20190;-80
2023/06/19 12:48:42;;;;;;;1999.90;999.90;;;36.30;67.20;;;;;;6669307;89;20620;-79
2023/06/19 12:58:43;;;;;;;1999.90;999.90;;;36.60;65.90;;;;;;6675453;89;20636;-80
2023/06/19 13:08:45;;;;;;;1999.90;999.90;;;35.10;66.00;;;;;;6668956;88;20346;-80
2023/06/19 13:18:46;;;;;;;1999.90;999.90;;;36.70;65.90;;;;;;6669130;89;20687;-79
2023/06/19 13:28:46;;;;;;;1999.90;999.90;;;35.10;65.50;;;;;;6668989;89;20668;-79
2023/06/19 13:38:47;;;;;;;1999.90;999.90;;;35.50;64.90;;;;;;6668037;88;20202;-79
2023/06/19 13:48:50;;;;;;;1999.90;999.90;;;34.80;65.50;;;;;;6666937;88;20210;-80
2023/06/19 13:58:51;;;;;;;1999.90;999.90;;;35.30;65.40;;;;;;6669063;89;20184;-80
2023/06/19 14:08:51;;;;;;;1999.90;999.90;;;34.60;63.70;;;;;;6669062;89;20287;-79
2023/06/19 14:18:52;;;;;;;1999.90;999.90;;;33.20;65.80;;;;;;6668601;89;20248;-79
2023/06/19 14:28:56;;;;;;;1999.90;999.90;;;33.50;67.30;;;;;;6669038;89;20254;-81
2023/06/19 14:38:57;;;;;;;1999.90;999.90;;;33.80;66.40;;;;;;6671436;89;20329;-80
2023/06/19 14:49:01;;;;;;;1999.90;999.90;;;33.60;66.60;;;;;;6672365;89;20404;-80
2023/06/19 14:59:01;;;;;;;1999.90;999.90;;;33.40;66.70;;;;;;6671893;89;20217;-80
2023/06/19 15:09:02;;;;;;;1999.90;999.90;;;33.00;66.80;;;;;;6675096;89;20191;-81
2023/06/19 15:19:03;;;;;;;1999.90;999.90;;;32.90;67.00;;;;;;6678937;89;20200;-80
2023/06/19 15:39:06;;;;;;;1999.90;999.90;;;32.70;67.30;;;;;;6685190;88;20262;-77
2023/06/19 15:49:07;;;;;;;1999.90;999.90;;;32.80;67.00;;;;;;6678202;88;20242;-78
2023/06/19 15:59:08;;;;;;;1999.90;999.90;;;33.80;66.60;;;;;;6675832;88;20225;-79
2023/06/19 16:09:09;;;;;;;1999.90;999.90;;;33.80;66.10;;;;;;6689815;88;20366;-79
2023/06/19 16:19:09;;;;;;;1999.90;999.90;;;33.40;66.50;;;;;;6662804;89;20341;-79
2023/06/19 16:29:12;;;;;;;1999.90;999.90;;;32.70;66.40;;;;;;6698813;88;22021;-77
2023/06/19 16:39:14;;;;;;;1999.90;999.90;;;31.40;68.70;;;;;;6671535;88;20192;-77
2023/06/19 16:49:15;;;;;;;1999.90;999.90;;;31.90;69.30;;;;;;6669033;88;20578;-77
2023/06/19 16:59:15;;;;;;;1999.90;999.90;;;31.60;68.60;;;;;;6673605;88;20185;-77
2023/06/19 17:09:16;;;;;;;1999.90;999.90;;;31.80;68.80;;;;;;6680484;88;20204;-77
2023/06/19 17:19:16;;;;;;;1999.90;999.90;;;31.30;70.00;;;;;;6657987;88;20323;-76
2023/06/19 17:29:17;;;;;;;1999.90;999.90;;;30.90;69.60;;;;;;6662131;88;20917;-77
2023/06/19 17:39:17;;;;;;;1999.90;999.90;;;30.00;71.20;;;;;;6666771;88;20252;-76
2023/06/19 17:49:20;;;;;;;1999.90;999.90;;;29.90;71.90;;;;;;6682829;88;20582;-78
2023/06/19 17:59:21;;;;;;;1999.90;999.90;;;29.60;72.70;;;;;;6669822;88;20180;-78
2023/06/19 18:09:22;;;;;;;1999.90;999.90;;;29.50;74.10;;;;;;6689710;88;20184;-79
2023/06/19 18:19:22;;;;;;;1999.90;999.90;;;29.40;73.80;;;;;;6695467;88;20348;-80
2023/06/19 18:29:23;;;;;;;1999.90;999.90;;;29.20;74.80;;;;;;6677347;88;20192;-78
2023/06/19 18:39:24;;;;;;;1999.90;999.90;;;29.00;75.40;;;;;;6690703;88;20221;-79
2023/06/19 18:49:24;;;;;;;1999.90;999.90;;;28.90;75.00;;;;;;6671745;88;20713;-79
2023/06/19 18:59:25;;;;;;;1999.90;999.90;;;28.60;75.50;;;;;;6674420;88;20307;-79
2023/06/19 19:09:25;;;;;;;1999.90;999.90;;;28.50;76.70;;;;;;6672724;88;20204;-80
2023/06/19 19:19:27;;;;;;;1999.90;999.90;;;28.20;77.80;;;;;;6678882;88;20273;-80
2023/06/19 19:29:27;;;;;;;1999.90;999.90;;;27.90;78.60;;;;;;6669825;88;20562;-79
2023/06/19 19:39:29;;;;;;;1999.90;999.90;;;27.60;79.10;;;;;;6671844;88;20216;-80
2023/06/19 19:49:30;;;;;;;1999.90;999.90;;;27.20;80.40;;;;;;6672215;88;20603;-79
2023/06/19 19:59:33;;;;;;;1999.90;999.90;;;27.10;80.60;;;;;;6674154;88;20210;-80
2023/06/19 20:09:33;;;;;;;;;;;26.90;82.10;;;;;;6672257;88;20184;-80
2023/06/19 20:19:34;;;;;;;1999.90;999.90;;;26.80;83.10;;;;;;6665903;88;20114;-79
2023/06/19 20:29:34;;;;;;;1999.90;999.90;;;26.50;83.40;;;;;;6675713;88;20188;-79
2023/06/19 20:39:35;;;;;;;1999.90;999.90;;;26.30;83.70;;;;;;6669994;88;20203;-79
2023/06/19 20:49:35;;;;;;;1999.90;999.90;;;26.10;84.50;;;;;;6668851;89;20214;-79
2023/06/19 20:59:36;;;;;;;1999.90;999.90;;;25.90;85.40;;;;;;6669204;89;20251;-78
2023/06/19 21:09:36;;;;;;;1999.90;999.90;;;25.80;85.80;;;;;;6665253;89;20206;-79
2023/06/19 21:19:37;;;;;;;1999.90;999.90;;;25.70;86.00;;;;;;6668589;89;20190;-79
2023/06/19 21:39:41;;;;;;;1999.90;999.90;;;25.60;87.40;;;;;;6768742;88;20190;-83
2023/06/19 21:49:41;;;;;;;1999.90;999.90;;;25.30;87.80;;;;;;6747711;88;20229;-84
2023/06/19 21:59:42;;;;;;;1999.90;999.90;;;25.00;90.10;;;;;;6747994;88;20262;-83
2023/06/19 22:09:42;;;;;;;1999.90;999.90;;;25.00;90.20;;;;;;6744278;88;20191;-81
2023/06/19 22:19:43;;;;;;;1999.90;999.90;;;25.00;90.60;;;;;;6749572;88;20177;-83
2023/06/19 22:29:44;;;;;;;1999.90;999.90;;;24.80;91.00;;;;;;6750003;88;20215;-82
2023/06/19 22:39:45;;;;;;;1999.90;999.90;;;24.70;92.00;;;;;;6760152;88;20152;-83
2023/06/19 22:49:45;;;;;;;1999.90;999.90;;;24.70;92.20;;;;;;6727804;88;20174;-83
2023/06/19 22:59:46;;;;;;;1999.90;999.90;;;24.60;92.70;;;;;;6713130;88;20155;-82
2023/06/19 23:09:46;;;;;;;1999.90;999.90;;;24.40;94.30;;;;;;6715372;88;20162;-82
2023/06/19 23:19:47;;;;;;;1999.90;999.90;;;24.40;95.50;;;;;;6715650;88;20916;-84
2023/06/19 23:29:50;;;;;;;1999.90;999.90;;;24.40;96.60;;;;;;6715416;88;20882;-84
2023/06/19 23:39:51;;;;;;;;;;;24.40;98.30;;;;;;6755228;88;20214;-82
2023/06/19 23:49:51;;;;;;;1999.90;999.90;;;24.40;99.40;;;;;;6766077;88;20093;-82
2023/06/19 23:59:52;;;;;;;1999.90;999.90;;;24.20;99.90;;;;;;6754924;88;20210;-80
